sensor_id;sensor_type;location;lat;lon;timestamp;P1;durP1;ratioP1;P2;durP2;ratioP2
42226;SDS011;27892;52.378;13.122;2023-03-01T00:01:53;9.00;;;6.47;;
42226;SDS011;27892;52.378;13.122;2023-03-01T00:04:19;11.73;;;7.43;;
42226;SDS011;27892;52.378;13.122;2023-03-01T00:06:45;9.43;;;6.83;;
42226;SDS011;27892;52.378;13.122;2023-03-01T00:09:12;10.60;;;7.20;;
42226;SDS011;27892;52.378;13.122;2023-03-01T00:11:38;8.27;;;6.53;;
42226;SDS011;27892;52.378;13.122;2023-03-01T00:14:04;9.90;;;7.33;;
42226;SDS011;27892;52.378;13.122;2023-03-01T00:16:32;12.67;;;8.10;;
42226;SDS011;27892;52.378;13.122;2023-03-01T00:19:04;11.63;;;7.60;;
42226;SDS011;27892;52.378;13.122;2023-03-01T00:21:31;12.50;;;8.13;;
42226;SDS011;27892;52.378;13.122;2023-03-01T00:23:57;10.87;;;7.17;;
42226;SDS011;27892;52.378;13.122;2023-03-01T00:26:24;9.70;;;6.67;;
42226;SDS011;27892;52.378;13.122;2023-03-01T00:28:50;10.87;;;7.03;;
42226;SDS011;27892;52.378;13.122;2023-03-01T00:31:20;11.17;;;7.23;;
42226;SDS011;27892;52.378;13.122;2023-03-01T00:33:47;13.23;;;8.50;;
42226;SDS011;27892;52.378;13.122;2023-03-01T00:36:14;11.50;;;7.63;;
42226;SDS011;27892;52.378;13.122;2023-03-01T00:38:44;11.83;;;7.60;;
42226;SDS011;27892;52.378;13.122;2023-03-01T00:41:11;9.37;;;7.50;;
42226;SDS011;27892;52.378;13.122;2023-03-01T00:43:39;11.00;;;7.60;;
42226;SDS011;27892;52.378;13.122;2023-03-01T00:46:05;10.07;;;7.03;;
42226;SDS011;27892;52.378;13.122;2023-03-01T00:48:33;8.73;;;6.37;;
42226;SDS011;27892;52.378;13.122;2023-03-01T00:51:06;8.60;;;5.60;;
42226;SDS011;27892;52.378;13.122;2023-03-01T00:53:33;5.40;;;4.63;;
42226;SDS011;27892;52.378;13.122;2023-03-01T00:56:00;6.13;;;4.63;;
42226;SDS011;27892;52.378;13.122;2023-03-01T00:58:26;12.07;;;7.57;;
42226;SDS011;27892;52.378;13.122;2023-03-01T01:00:52;11.37;;;7.73;;
42226;SDS011;27892;52.378;13.122;2023-03-01T01:03:18;12.53;;;7.87;;
42226;SDS011;27892;52.378;13.122;2023-03-01T01:05:44;14.03;;;8.00;;
42226;SDS011;27892;52.378;13.122;2023-03-01T01:08:10;8.77;;;6.43;;
42226;SDS011;27892;52.378;13.122;2023-03-01T01:10:36;8.00;;;5.63;;
42226;SDS011;27892;52.378;13.122;2023-03-01T01:13:01;8.87;;;6.70;;
42226;SDS011;27892;52.378;13.122;2023-03-01T01:15:27;11.30;;;7.53;;
42226;SDS011;27892;52.378;13.122;2023-03-01T01:17:53;10.60;;;7.13;;
42226;SDS011;27892;52.378;13.122;2023-03-01T01:20:19;8.00;;;6.10;;
42226;SDS011;27892;52.378;13.122;2023-03-01T01:22:45;9.50;;;6.57;;
42226;SDS011;27892;52.378;13.122;2023-03-01T01:25:11;8.53;;;5.80;;
42226;SDS011;27892;52.378;13.122;2023-03-01T01:27:37;8.97;;;6.40;;
42226;SDS011;27892;52.378;13.122;2023-03-01T01:30:03;8.57;;;6.53;;
42226;SDS011;27892;52.378;13.122;2023-03-01T01:32:29;10.30;;;6.97;;
42226;SDS011;27892;52.378;13.122;2023-03-01T01:34:55;9.20;;;5.43;;
42226;SDS011;27892;52.378;13.122;2023-03-01T01:37:21;8.83;;;6.50;;
42226;SDS011;27892;52.378;13.122;2023-03-01T01:39:46;9.57;;;6.63;;
42226;SDS011;27892;52.378;13.122;2023-03-01T01:42:16;10.20;;;6.80;;
42226;SDS011;27892;52.378;13.122;2023-03-01T01:44:44;10.47;;;6.80;;
42226;SDS011;27892;52.378;13.122;2023-03-01T01:49:47;9.40;;;6.83;;
42226;SDS011;27892;52.378;13.122;2023-03-01T01:52:29;11.00;;;7.20;;
42226;SDS011;27892;52.378;13.122;2023-03-01T01:55:09;9.33;;;6.80;;
42226;SDS011;27892;52.378;13.122;2023-03-01T01:57:49;12.20;;;7.60;;
42226;SDS011;27892;52.378;13.122;2023-03-01T02:00:21;12.40;;;8.07;;
42226;SDS011;27892;52.378;13.122;2023-03-01T02:02:49;10.33;;;7.77;;
42226;SDS011;27892;52.378;13.122;2023-03-01T02:05:28;11.87;;;7.40;;
42226;SDS011;27892;52.378;13.122;2023-03-01T02:07:58;10.40;;;7.37;;
42226;SDS011;27892;52.378;13.122;2023-03-01T02:10:24;11.40;;;7.10;;
42226;SDS011;27892;52.378;13.122;2023-03-01T02:12:52;10.23;;;6.77;;
42226;SDS011;27892;52.378;13.122;2023-03-01T02:15:21;9.93;;;6.97;;
42226;SDS011;27892;52.378;13.122;2023-03-01T02:17:48;9.27;;;6.50;;
42226;SDS011;27892;52.378;13.122;2023-03-01T02:23:08;9.00;;;6.03;;
42226;SDS011;27892;52.378;13.122;2023-03-01T02:30:41;9.40;;;6.30;;
42226;SDS011;27892;52.378;13.122;2023-03-01T02:33:28;7.70;;;5.60;;
42226;SDS011;27892;52.378;13.122;2023-03-01T02:35:58;7.37;;;5.37;;
42226;SDS011;27892;52.378;13.122;2023-03-01T02:38:26;12.27;;;7.10;;
42226;SDS011;27892;52.378;13.122;2023-03-01T02:40:53;8.37;;;6.20;;
42226;SDS011;27892;52.378;13.122;2023-03-01T02:43:22;9.57;;;6.33;;
42226;SDS011;27892;52.378;13.122;2023-03-01T02:45:52;9.63;;;6.37;;
42226;SDS011;27892;52.378;13.122;2023-03-01T02:48:22;9.10;;;6.57;;
42226;SDS011;27892;52.378;13.122;2023-03-01T02:50:52;11.80;;;7.30;;
42226;SDS011;27892;52.378;13.122;2023-03-01T02:56:21;8.47;;;6.10;;
42226;SDS011;27892;52.378;13.122;2023-03-01T02:58:47;8.93;;;6.47;;
42226;SDS011;27892;52.378;13.122;2023-03-01T03:01:17;10.60;;;6.50;;
42226;SDS011;27892;52.378;13.122;2023-03-01T03:03:44;9.60;;;6.37;;
42226;SDS011;27892;52.378;13.122;2023-03-01T03:06:28;11.23;;;7.03;;
42226;SDS011;27892;52.378;13.122;2023-03-01T03:09:13;11.87;;;7.00;;
42226;SDS011;27892;52.378;13.122;2023-03-01T03:11:58;9.00;;;5.80;;
42226;SDS011;27892;52.378;13.122;2023-03-01T03:14:42;7.57;;;5.80;;
42226;SDS011;27892;52.378;13.122;2023-03-01T03:17:08;6.97;;;5.57;;
42226;SDS011;27892;52.378;13.122;2023-03-01T03:19:33;8.67;;;6.37;;
42226;SDS011;27892;52.378;13.122;2023-03-01T03:21:59;11.40;;;7.10;;
42226;SDS011;27892;52.378;13.122;2023-03-01T03:24:24;11.57;;;7.33;;
42226;SDS011;27892;52.378;13.122;2023-03-01T03:26:50;12.07;;;7.80;;
42226;SDS011;27892;52.378;13.122;2023-03-01T03:29:16;10.40;;;7.57;;
42226;SDS011;27892;52.378;13.122;2023-03-01T03:31:41;8.67;;;6.50;;
42226;SDS011;27892;52.378;13.122;2023-03-01T03:34:07;10.20;;;6.97;;
42226;SDS011;27892;52.378;13.122;2023-03-01T03:36:32;10.80;;;6.00;;
42226;SDS011;27892;52.378;13.122;2023-03-01T03:38:58;9.33;;;6.20;;
42226;SDS011;27892;52.378;13.122;2023-03-01T03:41:24;6.50;;;5.23;;
42226;SDS011;27892;52.378;13.122;2023-03-01T03:43:49;7.70;;;5.50;;
42226;SDS011;27892;52.378;13.122;2023-03-01T03:46:15;6.77;;;4.90;;
42226;SDS011;27892;52.378;13.122;2023-03-01T03:48:42;5.50;;;4.23;;
42226;SDS011;27892;52.378;13.122;2023-03-01T03:51:10;4.97;;;4.00;;
42226;SDS011;27892;52.378;13.122;2023-03-01T03:53:37;7.30;;;5.50;;
42226;SDS011;27892;52.378;13.122;2023-03-01T03:56:03;8.93;;;6.60;;
42226;SDS011;27892;52.378;13.122;2023-03-01T03:58:29;10.23;;;7.13;;
42226;SDS011;27892;52.378;13.122;2023-03-01T04:00:56;10.10;;;6.97;;
42226;SDS011;27892;52.378;13.122;2023-03-01T04:03:23;10.20;;;7.20;;
42226;SDS011;27892;52.378;13.122;2023-03-01T04:05:50;9.57;;;6.60;;
42226;SDS011;27892;52.378;13.122;2023-03-01T04:08:17;10.00;;;6.20;;
42226;SDS011;27892;52.378;13.122;2023-03-01T04:10:48;9.23;;;6.87;;
42226;SDS011;27892;52.378;13.122;2023-03-01T04:13:17;10.27;;;6.37;;
42226;SDS011;27892;52.378;13.122;2023-03-01T04:15:50;8.83;;;6.60;;
42226;SDS011;27892;52.378;13.122;2023-03-01T04:18:17;10.57;;;6.63;;
42226;SDS011;27892;52.378;13.122;2023-03-01T04:20:44;10.50;;;6.47;;
42226;SDS011;27892;52.378;13.122;2023-03-01T04:23:12;8.87;;;6.60;;
42226;SDS011;27892;52.378;13.122;2023-03-01T04:25:55;9.97;;;6.27;;
42226;SDS011;27892;52.378;13.122;2023-03-01T04:28:23;11.27;;;6.70;;
42226;SDS011;27892;52.378;13.122;2023-03-01T04:30:51;10.23;;;5.80;;
42226;SDS011;27892;52.378;13.122;2023-03-01T04:33:18;7.40;;;5.10;;
42226;SDS011;27892;52.378;13.122;2023-03-01T04:35:44;8.17;;;5.43;;
42226;SDS011;27892;52.378;13.122;2023-03-01T04:38:10;7.40;;;5.33;;
42226;SDS011;27892;52.378;13.122;2023-03-01T04:40:36;7.93;;;5.20;;
42226;SDS011;27892;52.378;13.122;2023-03-01T04:43:03;8.10;;;5.67;;
42226;SDS011;27892;52.378;13.122;2023-03-01T04:45:29;10.70;;;6.53;;
42226;SDS011;27892;52.378;13.122;2023-03-01T04:47:57;9.40;;;6.90;;
42226;SDS011;27892;52.378;13.122;2023-03-01T04:50:23;9.20;;;7.10;;
42226;SDS011;27892;52.378;13.122;2023-03-01T04:52:49;11.33;;;7.17;;
42226;SDS011;27892;52.378;13.122;2023-03-01T04:55:14;9.27;;;6.60;;
42226;SDS011;27892;52.378;13.122;2023-03-01T04:57:40;9.50;;;7.03;;
42226;SDS011;27892;52.378;13.122;2023-03-01T05:00:08;10.30;;;6.37;;
42226;SDS011;27892;52.378;13.122;2023-03-01T05:02:46;8.70;;;5.93;;
42226;SDS011;27892;52.378;13.122;2023-03-01T05:05:13;7.93;;;5.93;;
42226;SDS011;27892;52.378;13.122;2023-03-01T05:07:39;9.00;;;6.63;;
42226;SDS011;27892;52.378;13.122;2023-03-01T05:10:04;10.53;;;6.70;;
42226;SDS011;27892;52.378;13.122;2023-03-01T05:12:30;10.97;;;6.43;;
42226;SDS011;27892;52.378;13.122;2023-03-01T05:14:56;8.77;;;6.00;;
42226;SDS011;27892;52.378;13.122;2023-03-01T05:17:22;10.47;;;6.40;;
42226;SDS011;27892;52.378;13.122;2023-03-01T05:19:48;6.00;;;5.23;;
42226;SDS011;27892;52.378;13.122;2023-03-01T05:22:13;11.40;;;6.83;;
42226;SDS011;27892;52.378;13.122;2023-03-01T05:24:39;7.83;;;5.83;;
42226;SDS011;27892;52.378;13.122;2023-03-01T05:27:05;7.97;;;5.80;;
42226;SDS011;27892;52.378;13.122;2023-03-01T05:29:31;8.47;;;5.93;;
42226;SDS011;27892;52.378;13.122;2023-03-01T05:32:00;8.50;;;5.77;;
42226;SDS011;27892;52.378;13.122;2023-03-01T05:34:34;8.03;;;5.33;;
42226;SDS011;27892;52.378;13.122;2023-03-01T05:37:01;8.00;;;5.40;;
42226;SDS011;27892;52.378;13.122;2023-03-01T05:39:28;8.60;;;5.53;;
42226;SDS011;27892;52.378;13.122;2023-03-01T05:41:57;8.10;;;5.63;;
42226;SDS011;27892;52.378;13.122;2023-03-01T05:44:25;6.57;;;4.97;;
42226;SDS011;27892;52.378;13.122;2023-03-01T05:46:51;7.90;;;5.20;;
42226;SDS011;27892;52.378;13.122;2023-03-01T05:49:17;5.57;;;4.50;;
42226;SDS011;27892;52.378;13.122;2023-03-01T05:51:45;4.57;;;3.90;;
42226;SDS011;27892;52.378;13.122;2023-03-01T05:54:13;4.00;;;3.60;;
42226;SDS011;27892;52.378;13.122;2023-03-01T05:56:39;6.20;;;4.40;;
42226;SDS011;27892;52.378;13.122;2023-03-01T05:59:04;7.50;;;5.60;;
42226;SDS011;27892;52.378;13.122;2023-03-01T06:01:31;7.73;;;6.27;;
42226;SDS011;27892;52.378;13.122;2023-03-01T06:03:57;10.50;;;6.73;;
42226;SDS011;27892;52.378;13.122;2023-03-01T06:06:23;10.70;;;7.17;;
42226;SDS011;27892;52.378;13.122;2023-03-01T06:08:50;9.13;;;6.80;;
42226;SDS011;27892;52.378;13.122;2023-03-01T06:11:16;9.90;;;6.53;;
42226;SDS011;27892;52.378;13.122;2023-03-01T06:13:43;10.03;;;7.00;;
42226;SDS011;27892;52.378;13.122;2023-03-01T06:16:09;6.83;;;5.50;;
42226;SDS011;27892;52.378;13.122;2023-03-01T06:18:35;6.30;;;4.97;;
42226;SDS011;27892;52.378;13.122;2023-03-01T06:21:02;8.27;;;5.90;;
42226;SDS011;27892;52.378;13.122;2023-03-01T06:23:28;8.03;;;5.70;;
42226;SDS011;27892;52.378;13.122;2023-03-01T06:25:54;5.10;;;4.53;;
42226;SDS011;27892;52.378;13.122;2023-03-01T06:28:19;4.73;;;4.23;;
42226;SDS011;27892;52.378;13.122;2023-03-01T06:30:45;6.77;;;5.80;;
42226;SDS011;27892;52.378;13.122;2023-03-01T06:33:11;7.77;;;6.47;;
42226;SDS011;27892;52.378;13.122;2023-03-01T06:35:37;9.67;;;7.30;;
42226;SDS011;27892;52.378;13.122;2023-03-01T06:38:04;11.20;;;7.13;;
42226;SDS011;27892;52.378;13.122;2023-03-01T06:40:31;10.27;;;7.10;;
42226;SDS011;27892;52.378;13.122;2023-03-01T06:42:57;10.00;;;6.77;;
42226;SDS011;27892;52.378;13.122;2023-03-01T06:45:23;8.67;;;6.10;;
42226;SDS011;27892;52.378;13.122;2023-03-01T06:47:49;5.97;;;5.23;;
42226;SDS011;27892;52.378;13.122;2023-03-01T06:50:15;6.50;;;5.33;;
42226;SDS011;27892;52.378;13.122;2023-03-01T06:52:42;6.00;;;4.80;;
42226;SDS011;27892;52.378;13.122;2023-03-01T06:55:10;6.37;;;4.70;;
42226;SDS011;27892;52.378;13.122;2023-03-01T06:57:36;4.37;;;3.80;;
42226;SDS011;27892;52.378;13.122;2023-03-01T07:00:03;4.80;;;4.30;;
42226;SDS011;27892;52.378;13.122;2023-03-01T07:02:29;5.67;;;4.40;;
42226;SDS011;27892;52.378;13.122;2023-03-01T07:04:55;4.83;;;4.10;;
42226;SDS011;27892;52.378;13.122;2023-03-01T07:07:21;4.50;;;4.00;;
42226;SDS011;27892;52.378;13.122;2023-03-01T07:09:48;5.47;;;4.00;;
42226;SDS011;27892;52.378;13.122;2023-03-01T07:12:14;4.80;;;3.77;;
42226;SDS011;27892;52.378;13.122;2023-03-01T07:14:40;4.63;;;3.60;;
42226;SDS011;27892;52.378;13.122;2023-03-01T07:17:06;4.17;;;3.70;;
42226;SDS011;27892;52.378;13.122;2023-03-01T07:19:31;6.87;;;5.00;;
42226;SDS011;27892;52.378;13.122;2023-03-01T07:21:57;5.37;;;4.30;;
42226;SDS011;27892;52.378;13.122;2023-03-01T07:24:23;4.63;;;4.13;;
42226;SDS011;27892;52.378;13.122;2023-03-01T07:26:49;4.60;;;4.10;;
42226;SDS011;27892;52.378;13.122;2023-03-01T07:29:15;4.67;;;3.80;;
42226;SDS011;27892;52.378;13.122;2023-03-01T07:31:41;4.20;;;3.80;;
42226;SDS011;27892;52.378;13.122;2023-03-01T07:34:07;3.93;;;3.53;;
42226;SDS011;27892;52.378;13.122;2023-03-01T07:36:33;5.13;;;3.70;;
42226;SDS011;27892;52.378;13.122;2023-03-01T07:38:59;4.37;;;3.60;;
42226;SDS011;27892;52.378;13.122;2023-03-01T07:41:27;3.97;;;3.53;;
42226;SDS011;27892;52.378;13.122;2023-03-01T07:43:53;4.77;;;4.27;;
42226;SDS011;27892;52.378;13.122;2023-03-01T07:46:18;10.63;;;7.80;;
42226;SDS011;27892;52.378;13.122;2023-03-01T07:48:44;7.43;;;5.77;;
42226;SDS011;27892;52.378;13.122;2023-03-01T07:51:10;8.37;;;5.50;;
42226;SDS011;27892;52.378;13.122;2023-03-01T07:53:36;6.77;;;4.90;;
42226;SDS011;27892;52.378;13.122;2023-03-01T07:56:09;9.37;;;6.83;;
42226;SDS011;27892;52.378;13.122;2023-03-01T07:58:40;15.73;;;8.03;;
42226;SDS011;27892;52.378;13.122;2023-03-01T08:01:08;15.37;;;7.73;;
42226;SDS011;27892;52.378;13.122;2023-03-01T08:03:35;9.80;;;6.47;;
42226;SDS011;27892;52.378;13.122;2023-03-01T08:06:03;10.63;;;6.97;;
42226;SDS011;27892;52.378;13.122;2023-03-01T08:08:29;10.93;;;7.90;;
42226;SDS011;27892;52.378;13.122;2023-03-01T08:10:56;14.03;;;8.67;;
42226;SDS011;27892;52.378;13.122;2023-03-01T08:13:22;14.17;;;9.27;;
42226;SDS011;27892;52.378;13.122;2023-03-01T08:15:48;12.87;;;8.53;;
42226;SDS011;27892;52.378;13.122;2023-03-01T08:18:14;13.47;;;8.70;;
42226;SDS011;27892;52.378;13.122;2023-03-01T08:20:41;12.37;;;8.73;;
42226;SDS011;27892;52.378;13.122;2023-03-01T08:23:06;14.30;;;9.40;;
42226;SDS011;27892;52.378;13.122;2023-03-01T08:25:33;16.57;;;11.00;;
42226;SDS011;27892;52.378;13.122;2023-03-01T08:27:59;14.97;;;10.30;;
42226;SDS011;27892;52.378;13.122;2023-03-01T08:30:25;14.97;;;9.23;;
42226;SDS011;27892;52.378;13.122;2023-03-01T08:32:51;15.13;;;9.67;;
42226;SDS011;27892;52.378;13.122;2023-03-01T08:35:17;10.63;;;7.50;;
42226;SDS011;27892;52.378;13.122;2023-03-01T08:37:44;10.77;;;8.60;;
42226;SDS011;27892;52.378;13.122;2023-03-01T08:40:09;9.83;;;7.13;;
42226;SDS011;27892;52.378;13.122;2023-03-01T08:42:36;6.93;;;5.67;;
42226;SDS011;27892;52.378;13.122;2023-03-01T08:45:05;7.37;;;5.73;;
42226;SDS011;27892;52.378;13.122;2023-03-01T08:47:32;9.27;;;6.90;;
42226;SDS011;27892;52.378;13.122;2023-03-01T08:49:59;6.85;;;5.80;;
42226;SDS011;27892;52.378;13.122;2023-03-01T08:52:25;5.82;;;4.63;;
42226;SDS011;27892;52.378;13.122;2023-03-01T08:54:50;4.80;;;4.30;;
42226;SDS011;27892;52.378;13.122;2023-03-01T08:57:16;4.03;;;3.63;;
42226;SDS011;27892;52.378;13.122;2023-03-01T08:59:42;6.05;;;5.45;;
42226;SDS011;27892;52.378;13.122;2023-03-01T09:02:12;5.10;;;4.60;;
42226;SDS011;27892;52.378;13.122;2023-03-01T09:04:42;4.82;;;4.32;;
42226;SDS011;27892;52.378;13.122;2023-03-01T09:07:08;4.70;;;4.20;;
42226;SDS011;27892;52.378;13.122;2023-03-01T09:09:34;6.80;;;5.55;;
42226;SDS011;27892;52.378;13.122;2023-03-01T09:12:00;6.28;;;4.90;;
42226;SDS011;27892;52.378;13.122;2023-03-01T09:14:26;6.47;;;4.90;;
42226;SDS011;27892;52.378;13.122;2023-03-01T09:16:52;5.32;;;4.40;;
42226;SDS011;27892;52.378;13.122;2023-03-01T09:19:18;4.13;;;3.72;;
42226;SDS011;27892;52.378;13.122;2023-03-01T09:21:44;5.72;;;4.55;;
42226;SDS011;27892;52.378;13.122;2023-03-01T09:24:22;5.05;;;3.63;;
42226;SDS011;27892;52.378;13.122;2023-03-01T09:26:49;3.28;;;2.97;;
42226;SDS011;27892;52.378;13.122;2023-03-01T09:29:17;4.00;;;3.60;;
42226;SDS011;27892;52.378;13.122;2023-03-01T09:31:43;5.07;;;4.07;;
42226;SDS011;27892;52.378;13.122;2023-03-01T09:34:09;7.53;;;4.87;;
42226;SDS011;27892;52.378;13.122;2023-03-01T09:36:35;4.40;;;3.97;;
42226;SDS011;27892;52.378;13.122;2023-03-01T09:39:01;3.40;;;3.10;;
42226;SDS011;27892;52.378;13.122;2023-03-01T09:41:48;3.70;;;3.23;;
42226;SDS011;27892;52.378;13.122;2023-03-01T09:44:31;7.60;;;5.57;;
42226;SDS011;27892;52.378;13.122;2023-03-01T09:47:19;6.00;;;4.57;;
42226;SDS011;27892;52.378;13.122;2023-03-01T09:49:53;5.93;;;4.93;;
42226;SDS011;27892;52.378;13.122;2023-03-01T09:55:17;6.13;;;4.50;;
42226;SDS011;27892;52.378;13.122;2023-03-01T09:58:00;6.77;;;4.87;;
42226;SDS011;27892;52.378;13.122;2023-03-01T10:00:43;5.43;;;4.43;;
42226;SDS011;27892;52.378;13.122;2023-03-01T10:03:58;5.43;;;4.00;;
42226;SDS011;27892;52.378;13.122;2023-03-01T10:06:06;4.00;;;3.40;;
42226;SDS011;27892;52.378;13.122;2023-03-01T10:08:55;4.37;;;3.80;;
42226;SDS011;27892;52.378;13.122;2023-03-01T10:11:24;5.43;;;3.60;;
42226;SDS011;27892;52.378;13.122;2023-03-01T10:14:07;4.33;;;3.43;;
42226;SDS011;27892;52.378;13.122;2023-03-01T10:19:54;7.40;;;4.53;;
42226;SDS011;27892;52.378;13.122;2023-03-01T10:22:29;5.00;;;4.50;;
42226;SDS011;27892;52.378;13.122;2023-03-01T10:24:59;4.90;;;3.83;;
42226;SDS011;27892;52.378;13.122;2023-03-01T10:27:37;3.40;;;3.10;;
42226;SDS011;27892;52.378;13.122;2023-03-01T10:32:41;5.53;;;3.87;;
42226;SDS011;27892;52.378;13.122;2023-03-01T10:35:15;5.67;;;3.80;;
42226;SDS011;27892;52.378;13.122;2023-03-01T10:38:25;4.97;;;3.90;;
42226;SDS011;27892;52.378;13.122;2023-03-01T10:40:37;5.20;;;4.07;;
42226;SDS011;27892;52.378;13.122;2023-03-01T10:43:32;6.90;;;4.60;;
42226;SDS011;27892;52.378;13.122;2023-03-01T10:46:22;4.60;;;3.70;;
42226;SDS011;27892;52.378;13.122;2023-03-01T10:51:40;4.47;;;2.93;;
42226;SDS011;27892;52.378;13.122;2023-03-01T10:54:28;4.50;;;3.60;;
42226;SDS011;27892;52.378;13.122;2023-03-01T10:56:59;4.53;;;3.40;;
42226;SDS011;27892;52.378;13.122;2023-03-01T10:59:36;4.00;;;2.80;;
42226;SDS011;27892;52.378;13.122;2023-03-01T11:02:23;2.80;;;2.60;;
42226;SDS011;27892;52.378;13.122;2023-03-01T11:04:58;2.92;;;2.70;;
42226;SDS011;27892;52.378;13.122;2023-03-01T11:10:35;4.30;;;3.90;;
42226;SDS011;27892;52.378;13.122;2023-03-01T11:13:08;3.83;;;3.17;;
42226;SDS011;27892;52.378;13.122;2023-03-01T11:15:42;3.30;;;3.00;;
42226;SDS011;27892;52.378;13.122;2023-03-01T11:18:20;3.70;;;3.30;;
42226;SDS011;27892;52.378;13.122;2023-03-01T11:20:47;3.05;;;2.72;;
42226;SDS011;27892;52.378;13.122;2023-03-01T11:23:16;2.90;;;2.70;;
42226;SDS011;27892;52.378;13.122;2023-03-01T11:25:54;2.90;;;2.70;;
42226;SDS011;27892;52.378;13.122;2023-03-01T11:28:22;2.30;;;2.10;;
42226;SDS011;27892;52.378;13.122;2023-03-01T11:30:53;3.42;;;3.13;;
42226;SDS011;27892;52.378;13.122;2023-03-01T11:34:05;5.53;;;3.80;;
42226;SDS011;27892;52.378;13.122;2023-03-01T11:42:21;3.53;;;3.22;;
42226;SDS011;27892;52.378;13.122;2023-03-01T11:45:08;3.20;;;2.90;;
42226;SDS011;27892;52.378;13.122;2023-03-01T11:50:53;2.47;;;2.28;;
42226;SDS011;27892;52.378;13.122;2023-03-01T12:09:47;3.30;;;3.00;;
42226;SDS011;27892;52.378;13.122;2023-03-01T12:20:58;4.03;;;3.60;;
42226;SDS011;27892;52.378;13.122;2023-03-01T12:45:34;4.32;;;3.60;;
42226;SDS011;27892;52.378;13.122;2023-03-01T12:51:22;4.00;;;2.85;;
42226;SDS011;27892;52.378;13.122;2023-03-01T12:53:50;5.20;;;3.17;;
42226;SDS011;27892;52.378;13.122;2023-03-01T12:56:22;4.53;;;3.10;;
42226;SDS011;27892;52.378;13.122;2023-03-01T12:58:55;4.10;;;2.60;;
42226;SDS011;27892;52.378;13.122;2023-03-01T13:01:33;2.27;;;2.07;;
42226;SDS011;27892;52.378;13.122;2023-03-01T13:07:09;3.40;;;2.70;;
42226;SDS011;27892;52.378;13.122;2023-03-01T13:20:21;4.03;;;3.30;;
42226;SDS011;27892;52.378;13.122;2023-03-01T13:23:03;4.27;;;3.10;;
42226;SDS011;27892;52.378;13.122;2023-03-01T13:25:50;3.50;;;2.70;;
42226;SDS011;27892;52.378;13.122;2023-03-01T13:30:59;2.60;;;2.40;;
42226;SDS011;27892;52.378;13.122;2023-03-01T13:35:52;3.90;;;2.80;;
42226;SDS011;27892;52.378;13.122;2023-03-01T13:41:09;2.00;;;1.90;;
42226;SDS011;27892;52.378;13.122;2023-03-01T13:43:36;3.15;;;2.47;;
42226;SDS011;27892;52.378;13.122;2023-03-01T13:48:44;2.38;;;2.05;;
42226;SDS011;27892;52.378;13.122;2023-03-01T13:51:13;2.00;;;1.90;;
42226;SDS011;27892;52.378;13.122;2023-03-01T13:53:41;2.20;;;2.10;;
42226;SDS011;27892;52.378;13.122;2023-03-01T13:56:20;2.90;;;2.60;;
42226;SDS011;27892;52.378;13.122;2023-03-01T13:58:55;2.83;;;2.63;;
42226;SDS011;27892;52.378;13.122;2023-03-01T14:01:27;2.88;;;2.40;;
42226;SDS011;27892;52.378;13.122;2023-03-01T14:03:55;2.70;;;2.00;;
42226;SDS011;27892;52.378;13.122;2023-03-01T14:06:31;3.22;;;2.22;;
42226;SDS011;27892;52.378;13.122;2023-03-01T14:09:20;2.92;;;2.40;;
42226;SDS011;27892;52.378;13.122;2023-03-01T14:14:44;2.95;;;2.20;;
42226;SDS011;27892;52.378;13.122;2023-03-01T14:19:39;2.63;;;2.42;;
42226;SDS011;27892;52.378;13.122;2023-03-01T14:24:49;2.33;;;1.90;;
42226;SDS011;27892;52.378;13.122;2023-03-01T14:27:17;2.05;;;1.88;;
42226;SDS011;27892;52.378;13.122;2023-03-01T14:29:44;2.75;;;2.20;;
42226;SDS011;27892;52.378;13.122;2023-03-01T14:32:20;2.47;;;1.92;;
42226;SDS011;27892;52.378;13.122;2023-03-01T14:34:49;2.20;;;1.80;;
42226;SDS011;27892;52.378;13.122;2023-03-01T14:37:29;1.90;;;1.80;;
42226;SDS011;27892;52.378;13.122;2023-03-01T14:39:58;1.70;;;1.60;;
42226;SDS011;27892;52.378;13.122;2023-03-01T14:42:25;2.13;;;1.87;;
42226;SDS011;27892;52.378;13.122;2023-03-01T14:44:55;2.83;;;2.30;;
42226;SDS011;27892;52.378;13.122;2023-03-01T14:47:26;2.47;;;2.13;;
42226;SDS011;27892;52.378;13.122;2023-03-01T14:49:59;1.90;;;1.80;;
42226;SDS011;27892;52.378;13.122;2023-03-01T14:52:55;1.50;;;1.40;;
42226;SDS011;27892;52.378;13.122;2023-03-01T14:55:26;1.77;;;1.67;;
42226;SDS011;27892;52.378;13.122;2023-03-01T14:57:55;1.87;;;1.70;;
42226;SDS011;27892;52.378;13.122;2023-03-01T15:00:26;3.57;;;2.53;;
42226;SDS011;27892;52.378;13.122;2023-03-01T15:02:55;2.93;;;2.17;;
42226;SDS011;27892;52.378;13.122;2023-03-01T15:07:56;2.13;;;1.90;;
42226;SDS011;27892;52.378;13.122;2023-03-01T15:10:28;10.70;;;8.03;;
42226;SDS011;27892;52.378;13.122;2023-03-01T15:13:09;7.50;;;5.73;;
42226;SDS011;27892;52.378;13.122;2023-03-01T15:15:42;4.60;;;3.70;;
42226;SDS011;27892;52.378;13.122;2023-03-01T15:18:21;3.07;;;2.87;;
42226;SDS011;27892;52.378;13.122;2023-03-01T15:20:54;2.50;;;2.30;;
42226;SDS011;27892;52.378;13.122;2023-03-01T15:25:48;2.00;;;1.90;;
42226;SDS011;27892;52.378;13.122;2023-03-01T15:28:28;2.10;;;2.00;;
42226;SDS011;27892;52.378;13.122;2023-03-01T15:30:57;2.30;;;2.10;;
42226;SDS011;27892;52.378;13.122;2023-03-01T15:33:39;2.67;;;2.00;;
42226;SDS011;27892;52.378;13.122;2023-03-01T15:38:59;2.20;;;2.00;;
42226;SDS011;27892;52.378;13.122;2023-03-01T15:41:27;1.73;;;1.63;;
42226;SDS011;27892;52.378;13.122;2023-03-01T15:43:55;2.13;;;1.97;;
42226;SDS011;27892;52.378;13.122;2023-03-01T15:49:00;2.30;;;2.10;;
42226;SDS011;27892;52.378;13.122;2023-03-01T15:51:36;2.30;;;2.10;;
42226;SDS011;27892;52.378;13.122;2023-03-01T15:54:18;3.77;;;2.43;;
42226;SDS011;27892;52.378;13.122;2023-03-01T15:56:45;3.27;;;2.40;;
42226;SDS011;27892;52.378;13.122;2023-03-01T15:59:11;1.90;;;1.80;;
42226;SDS011;27892;52.378;13.122;2023-03-01T16:01:39;1.93;;;1.83;;
42226;SDS011;27892;52.378;13.122;2023-03-01T16:04:05;2.10;;;2.00;;
42226;SDS011;27892;52.378;13.122;2023-03-01T16:06:31;1.70;;;1.60;;
42226;SDS011;27892;52.378;13.122;2023-03-01T16:08:58;1.90;;;1.80;;
42226;SDS011;27892;52.378;13.122;2023-03-01T16:11:23;1.60;;;1.50;;
42226;SDS011;27892;52.378;13.122;2023-03-01T16:13:49;1.90;;;1.80;;
42226;SDS011;27892;52.378;13.122;2023-03-01T16:16:15;1.90;;;1.80;;
42226;SDS011;27892;52.378;13.122;2023-03-01T16:18:42;2.10;;;2.00;;
42226;SDS011;27892;52.378;13.122;2023-03-01T16:21:20;2.47;;;2.27;;
42226;SDS011;27892;52.378;13.122;2023-03-01T16:23:47;2.20;;;2.10;;
42226;SDS011;27892;52.378;13.122;2023-03-01T16:26:14;2.00;;;1.90;;
42226;SDS011;27892;52.378;13.122;2023-03-01T16:28:41;1.80;;;1.70;;
42226;SDS011;27892;52.378;13.122;2023-03-01T16:31:07;2.00;;;1.90;;
42226;SDS011;27892;52.378;13.122;2023-03-01T16:33:35;2.27;;;2.07;;
42226;SDS011;27892;52.378;13.122;2023-03-01T16:36:05;2.97;;;2.67;;
42226;SDS011;27892;52.378;13.122;2023-03-01T16:38:32;2.40;;;2.20;;
42226;SDS011;27892;52.378;13.122;2023-03-01T16:40:58;2.40;;;2.20;;
42226;SDS011;27892;52.378;13.122;2023-03-01T16:43:23;2.73;;;1.80;;
42226;SDS011;27892;52.378;13.122;2023-03-01T16:45:49;2.10;;;1.90;;
42226;SDS011;27892;52.378;13.122;2023-03-01T16:48:14;1.87;;;1.77;;
42226;SDS011;27892;52.378;13.122;2023-03-01T16:50:40;2.00;;;1.90;;
42226;SDS011;27892;52.378;13.122;2023-03-01T16:53:06;2.70;;;2.20;;
42226;SDS011;27892;52.378;13.122;2023-03-01T16:55:32;4.97;;;3.50;;